createdAt,value
2022-10-25T00:00:29.912Z,13.82
2022-10-25T00:02:57.855Z,13.70
2022-10-25T00:05:25.926Z,13.70
2022-10-25T00:07:53.864Z,13.57
2022-10-25T00:10:24.889Z,13.52
2022-10-25T00:12:55.228Z,13.57
2022-10-25T00:15:23.753Z,13.55
2022-10-25T00:17:51.855Z,13.55
2022-10-25T00:20:20.749Z,13.61
2022-10-25T00:22:48.978Z,13.65
2022-10-25T00:25:17.334Z,13.65
2022-10-25T00:27:45.247Z,13.69
2022-10-25T00:30:15.381Z,13.75
2022-10-25T00:32:43.517Z,13.68
2022-10-25T00:35:11.673Z,13.64
2022-10-25T00:37:39.611Z,13.68
2022-10-25T00:40:08.841Z,13.67
2022-10-25T00:42:36.834Z,13.66
2022-10-25T00:45:12.966Z,13.68
2022-10-25T00:47:52.410Z,13.63
2022-10-25T00:50:30.588Z,13.40
2022-10-25T00:53:05.694Z,13.26
2022-10-25T00:55:34.189Z,13.36
2022-10-25T00:58:07.014Z,13.50
2022-10-25T01:00:34.979Z,13.52
2022-10-25T01:03:05.402Z,13.53
2022-10-25T01:05:34.141Z,13.55
2022-10-25T01:08:02.551Z,13.60
2022-10-25T01:10:31.049Z,13.59
2022-10-25T01:13:01.262Z,13.59
2022-10-25T01:15:37.301Z,13.56
2022-10-25T01:18:16.269Z,13.56
2022-10-25T01:21:26.857Z,13.55
2022-10-25T01:24:08.777Z,13.53
2022-10-25T01:27:00.581Z,13.51
2022-10-25T01:30:03.817Z,13.50
2022-10-25T01:32:53.448Z,13.51
2022-10-25T01:35:27.755Z,13.53
2022-10-25T01:38:09.533Z,13.52
2022-10-25T01:40:46.614Z,13.52
2022-10-25T01:43:22.205Z,13.53
2022-10-25T01:45:59.816Z,13.53
2022-10-25T01:48:33.065Z,13.53
2022-10-25T01:51:07.445Z,13.53
2022-10-25T01:53:35.493Z,13.53
2022-10-25T01:56:06.751Z,13.47
2022-10-25T01:58:42.388Z,13.38
2022-10-25T02:01:22.115Z,13.37
2022-10-25T02:03:57.564Z,13.28
2022-10-25T02:06:31.014Z,13.35
2022-10-25T02:09:06.640Z,13.35
2022-10-25T02:11:35.541Z,13.35
2022-10-25T02:14:15.382Z,13.32
2022-10-25T02:16:46.370Z,13.33
2022-10-25T02:19:21.227Z,13.31
2022-10-25T02:21:50.272Z,13.29
2022-10-25T02:24:21.067Z,13.25
2022-10-25T02:26:51.254Z,13.22
2022-10-25T02:29:20.702Z,13.23
2022-10-25T02:31:48.867Z,13.17
2022-10-25T02:34:19.088Z,13.02
2022-10-25T02:36:50.279Z,13.07
2022-10-25T02:39:19.088Z,13.06
2022-10-25T02:41:46.952Z,13.03
2022-10-25T02:44:15.266Z,13.03
2022-10-25T02:46:43.235Z,13.07
2022-10-25T02:49:12.697Z,13.10
2022-10-25T02:51:42.089Z,13.12
2022-10-25T02:54:10.043Z,13.16
2022-10-25T02:56:39.243Z,13.17
2022-10-25T02:59:07.214Z,13.15
2022-10-25T03:01:35.289Z,13.15
2022-10-25T03:04:03.289Z,13.10
2022-10-25T03:06:31.306Z,13.06
2022-10-25T03:09:00.999Z,13.09
2022-10-25T03:11:29.013Z,13.09
2022-10-25T03:13:56.948Z,13.11
2022-10-25T03:16:24.874Z,13.04
2022-10-25T03:18:52.808Z,13.00
2022-10-25T03:21:20.793Z,12.98
2022-10-25T03:23:48.756Z,12.97
2022-10-25T03:26:18.122Z,12.98
2022-10-25T03:28:46.064Z,12.97
2022-10-25T03:31:15.230Z,12.99
2022-10-25T03:33:43.333Z,12.99
2022-10-25T03:36:11.679Z,12.95
2022-10-25T03:38:39.716Z,12.88
2022-10-25T03:41:07.852Z,12.85
2022-10-25T03:43:37.518Z,12.80
2022-10-25T03:46:05.604Z,12.82
2022-10-25T03:48:33.556Z,12.84
2022-10-25T03:51:01.504Z,12.81
2022-10-25T03:53:29.510Z,12.79
2022-10-25T03:55:57.484Z,12.77
2022-10-25T03:58:25.410Z,12.71
2022-10-25T04:00:54.966Z,12.70
2022-10-25T04:03:22.896Z,12.69
2022-10-25T04:05:50.919Z,12.71
2022-10-25T04:08:18.854Z,12.72
2022-10-25T04:10:48.121Z,12.73
2022-10-25T04:13:17.066Z,12.74
2022-10-25T04:15:45.039Z,12.72
2022-10-25T04:18:14.325Z,12.70
2022-10-25T04:20:42.252Z,12.68
2022-10-25T04:23:10.185Z,12.61
2022-10-25T04:25:38.133Z,12.61
2022-10-25T04:28:06.088Z,12.61
2022-10-25T04:30:36.577Z,12.61
2022-10-25T04:33:06.835Z,12.61
2022-10-25T04:35:36.338Z,12.60
2022-10-25T04:38:04.500Z,12.60
2022-10-25T04:40:32.550Z,12.65
2022-10-25T04:43:02.548Z,12.67
2022-10-25T04:45:30.839Z,12.64
2022-10-25T04:47:58.799Z,12.60
2022-10-25T04:50:26.765Z,12.63
2022-10-25T04:52:56.049Z,12.64
2022-10-25T04:55:24.047Z,12.64
2022-10-25T04:57:52.860Z,12.60
2022-10-25T05:00:20.804Z,12.55
2022-10-25T05:02:49.087Z,12.52
2022-10-25T05:05:17.319Z,12.50
2022-10-25T05:07:45.273Z,12.48
2022-10-25T05:10:14.652Z,12.47
2022-10-25T05:12:42.891Z,12.45
2022-10-25T05:15:11.766Z,12.46
2022-10-25T05:17:39.688Z,12.45
2022-10-25T05:20:08.582Z,12.46
2022-10-25T05:22:36.552Z,12.47
2022-10-25T05:25:04.739Z,12.50
2022-10-25T05:27:38.175Z,12.49
2022-10-25T05:30:07.261Z,12.51
2022-10-25T05:32:35.516Z,12.52
2022-10-25T05:35:03.603Z,12.58
2022-10-25T05:37:32.400Z,12.54
2022-10-25T05:40:00.286Z,12.43
2022-10-25T05:42:28.720Z,12.35
2022-10-25T05:44:57.989Z,12.34
2022-10-25T05:47:25.902Z,12.37
2022-10-25T05:49:53.890Z,12.38
2022-10-25T05:52:21.874Z,12.39
2022-10-25T05:54:49.842Z,12.40
2022-10-25T05:57:17.878Z,12.37
2022-10-25T05:59:45.771Z,12.38
2022-10-25T06:02:15.181Z,12.36
2022-10-25T06:04:43.181Z,12.34
2022-10-25T06:07:11.099Z,12.33
2022-10-25T06:09:39.032Z,12.32
2022-10-25T06:12:09.579Z,12.21
2022-10-25T06:14:37.743Z,11.99
2022-10-25T06:17:05.791Z,12.03
2022-10-25T06:19:35.071Z,12.13
2022-10-25T06:22:03.064Z,12.16
2022-10-25T06:24:31.037Z,12.20
2022-10-25T06:26:58.953Z,12.26
2022-10-25T06:29:26.912Z,12.37
2022-10-25T06:31:54.906Z,12.41
2022-10-25T06:34:22.829Z,12.42
2022-10-25T06:36:52.208Z,12.45
2022-10-25T06:39:20.124Z,12.51
2022-10-25T06:41:48.113Z,12.53
2022-10-25T06:44:17.112Z,12.50
2022-10-25T06:47:15.472Z,12.51
2022-10-25T06:49:32.953Z,12.50
2022-10-25T06:52:02.219Z,12.52
2022-10-25T06:54:30.167Z,12.57
2022-10-25T06:56:59.023Z,12.63
2022-10-25T06:59:26.912Z,12.66
2022-10-25T07:01:55.357Z,12.72
2022-10-25T07:04:23.439Z,12.77
2022-10-25T07:06:54.375Z,12.79
2022-10-25T07:09:26.563Z,12.83
2022-10-25T07:11:54.478Z,12.88
2022-10-25T07:14:22.375Z,12.93
2022-10-25T07:16:50.302Z,12.98
2022-10-25T07:19:18.237Z,12.92
2022-10-25T07:21:46.256Z,12.86
2022-10-25T07:24:14.516Z,12.70
2022-10-25T07:26:43.821Z,12.67
2022-10-25T07:29:11.752Z,12.64
2022-10-25T07:31:42.227Z,12.65
2022-10-25T07:34:12.770Z,12.58
2022-10-25T07:36:41.130Z,12.67
2022-10-25T07:39:09.284Z,12.76
2022-10-25T07:41:37.261Z,12.74
2022-10-25T07:44:07.477Z,12.69
2022-10-25T07:46:36.825Z,12.71
2022-10-25T07:49:04.789Z,12.86
2022-10-25T07:51:32.809Z,13.00
2022-10-25T07:54:00.730Z,13.09
2022-10-25T07:56:30.254Z,13.17
2022-10-25T07:58:58.380Z,13.26
2022-10-25T08:01:29.565Z,13.30
2022-10-25T08:03:57.717Z,13.41
2022-10-25T08:06:26.721Z,13.47
2022-10-25T08:08:54.904Z,13.54
2022-10-25T08:11:22.982Z,13.63
2022-10-25T08:13:51.960Z,13.65
2022-10-25T08:16:19.908Z,13.69
2022-10-25T08:18:49.177Z,13.75
2022-10-25T08:21:17.216Z,13.80
2022-10-25T08:23:45.173Z,13.87
2022-10-25T08:26:13.164Z,13.85
2022-10-25T08:28:41.094Z,13.91
2022-10-25T08:31:10.531Z,13.94
2022-10-25T08:33:38.431Z,13.97
2022-10-25T08:36:08.589Z,14.02
2022-10-25T08:38:36.631Z,14.09
2022-10-25T08:41:10.493Z,14.18
2022-10-25T08:46:38.842Z,14.19
2022-10-25T08:49:17.652Z,14.17
2022-10-25T08:51:50.626Z,14.15
2022-10-25T08:54:24.978Z,14.16
2022-10-25T08:57:14.242Z,14.17
2022-10-25T08:59:46.448Z,14.23
2022-10-25T09:02:21.435Z,14.31
2022-10-25T09:04:49.643Z,14.32
2022-10-25T09:07:42.792Z,14.35
2022-10-25T09:10:21.935Z,14.38
2022-10-25T09:12:57.447Z,14.33
2022-10-25T09:15:42.825Z,14.37
2022-10-25T09:18:16.689Z,14.43
2022-10-25T09:20:50.785Z,14.40
2022-10-25T09:23:29.321Z,14.44
2022-10-25T09:26:05.089Z,14.44
2022-10-25T09:28:51.069Z,14.44
2022-10-25T09:31:23.329Z,14.44
2022-10-25T09:33:57.735Z,14.55
2022-10-25T09:36:31.164Z,14.58
2022-10-25T09:39:02.756Z,14.62
2022-10-25T09:41:39.837Z,14.64
2022-10-25T09:44:15.620Z,14.67
2022-10-25T09:46:47.598Z,14.61
2022-10-25T09:49:25.479Z,14.68
2022-10-25T09:52:01.570Z,14.74
2022-10-25T09:54:36.151Z,14.77
2022-10-25T09:57:04.967Z,14.75
2022-10-25T09:59:33.019Z,14.75
2022-10-25T10:02:01.032Z,14.80
2022-10-25T10:04:35.435Z,14.87
2022-10-25T10:07:09.994Z,14.92
2022-10-25T10:09:45.700Z,14.98
2022-10-25T10:12:21.821Z,14.96
2022-10-25T10:14:57.325Z,15.03
2022-10-25T10:17:27.237Z,15.13
2022-10-25T10:20:13.938Z,15.13
2022-10-25T10:22:51.890Z,15.18
2022-10-25T10:25:25.064Z,15.22
2022-10-25T10:27:55.479Z,15.31
2022-10-25T10:30:28.768Z,15.29
2022-10-25T10:33:00.422Z,15.31
2022-10-25T10:35:34.244Z,15.38
2022-10-25T10:38:21.480Z,15.45
2022-10-25T10:40:51.889Z,15.51
2022-10-25T10:43:31.252Z,15.54
2022-10-25T10:46:04.550Z,15.57
2022-10-25T10:48:42.769Z,15.63
2022-10-25T10:51:31.630Z,15.69
2022-10-25T10:54:14.016Z,15.74
2022-10-25T10:56:43.291Z,15.83
2022-10-25T10:59:27.402Z,15.93
2022-10-25T11:01:56.533Z,15.99
2022-10-25T11:04:26.268Z,16.01
2022-10-25T11:06:54.588Z,16.10
2022-10-25T11:09:26.620Z,16.02
2022-10-25T11:12:11.946Z,15.98
2022-10-25T11:14:40.077Z,16.10
2022-10-25T11:17:13.521Z,16.25
2022-10-25T11:20:14.340Z,16.34
2022-10-25T11:23:05.339Z,16.37
2022-10-25T11:25:39.925Z,16.31
2022-10-25T11:28:23.549Z,16.29
2022-10-25T11:30:59.918Z,16.39
2022-10-25T11:33:50.498Z,16.54
2022-10-25T11:36:43.315Z,16.61
2022-10-25T11:39:24.941Z,16.67
2022-10-25T11:41:55.948Z,16.73
2022-10-25T11:45:06.369Z,16.76
2022-10-25T11:47:44.375Z,16.83
2022-10-25T11:50:23.921Z,16.85
2022-10-25T11:53:14.238Z,16.79
2022-10-25T11:55:49.365Z,16.77
2022-10-25T11:58:31.207Z,16.85
2022-10-25T12:01:10.820Z,16.89
2022-10-25T12:03:57.422Z,16.99
2022-10-25T12:06:31.039Z,17.01
2022-10-25T12:09:07.932Z,17.00
2022-10-25T12:11:43.087Z,16.94
2022-10-25T12:14:14.786Z,16.93
2022-10-25T12:16:45.380Z,17.08
2022-10-25T12:19:19.534Z,17.14
2022-10-25T12:21:54.824Z,17.22
2022-10-25T12:24:30.710Z,17.22
2022-10-25T12:26:59.537Z,17.23
2022-10-25T12:29:36.022Z,17.24
2022-10-25T12:32:13.789Z,17.20
2022-10-25T12:34:44.028Z,17.32
2022-10-25T12:37:18.061Z,17.42
2022-10-25T12:39:46.957Z,17.46
2022-10-25T12:42:19.275Z,17.53
2022-10-25T12:45:03.646Z,17.55
2022-10-25T12:47:47.933Z,17.56
2022-10-25T12:50:42.721Z,17.53
2022-10-25T12:53:39.908Z,17.49
2022-10-25T12:56:23.839Z,17.52
2022-10-25T12:59:07.552Z,17.50
2022-10-25T13:01:54.974Z,17.49
2022-10-25T13:04:49.991Z,17.64
2022-10-25T13:07:20.658Z,17.73
2022-10-25T13:09:49.092Z,17.78
2022-10-25T13:12:23.842Z,17.83
2022-10-25T13:14:54.155Z,17.93
2022-10-25T13:18:01.683Z,18.00
2022-10-25T13:20:50.738Z,18.09
2022-10-25T13:24:00.660Z,18.05
2022-10-25T13:26:47.655Z,18.12
2022-10-25T13:30:01.301Z,18.00
2022-10-25T13:32:30.479Z,17.85
2022-10-25T13:34:59.150Z,17.83
2022-10-25T13:37:45.573Z,17.86
2022-10-25T13:40:23.264Z,17.86
2022-10-25T13:43:01.319Z,17.87
2022-10-25T13:45:36.906Z,17.71
2022-10-25T13:48:20.624Z,17.56
2022-10-25T13:50:53.471Z,17.58
2022-10-25T13:53:26.071Z,17.54
2022-10-25T13:56:05.337Z,17.51
2022-10-25T13:58:44.283Z,17.37
2022-10-25T14:02:08.921Z,17.40
2022-10-25T14:04:40.586Z,17.42
2022-10-25T14:07:43.924Z,17.43
2022-10-25T14:10:38.233Z,17.50
2022-10-25T14:13:20.506Z,17.43
2022-10-25T14:15:55.758Z,17.40
2022-10-25T14:18:24.863Z,17.38
2022-10-25T14:20:56.849Z,17.38
2022-10-25T14:23:29.939Z,17.38
2022-10-25T14:26:01.071Z,17.33
2022-10-25T14:28:30.637Z,17.27
2022-10-25T14:31:00.288Z,17.23
2022-10-25T14:33:30.796Z,17.13
2022-10-25T14:36:08.005Z,17.10
2022-10-25T14:38:39.005Z,17.04
2022-10-25T14:41:13.756Z,17.01
2022-10-25T14:43:43.000Z,16.90
2022-10-25T14:46:15.891Z,16.77
2022-10-25T14:48:46.860Z,16.68
2022-10-25T14:51:19.903Z,16.53
2022-10-25T14:53:52.593Z,16.49
2022-10-25T14:56:26.634Z,16.54
2022-10-25T14:58:55.540Z,16.51
2022-10-25T15:01:24.331Z,16.40
2022-10-25T15:03:57.262Z,16.37
2022-10-25T15:06:27.929Z,16.40
2022-10-25T15:09:16.214Z,16.45
2022-10-25T15:12:05.317Z,16.47
2022-10-25T15:14:33.845Z,16.51
2022-10-25T15:17:07.158Z,16.49
2022-10-25T15:20:01.940Z,16.55
2022-10-25T15:22:32.806Z,16.61
2022-10-25T15:25:00.871Z,16.67
2022-10-25T15:27:35.846Z,16.68
2022-10-25T15:30:05.833Z,16.71
2022-10-25T15:32:34.643Z,16.77
2022-10-25T15:35:03.496Z,16.82
2022-10-25T15:37:31.800Z,16.82
2022-10-25T15:40:01.067Z,16.85
2022-10-25T15:42:29.126Z,16.85
2022-10-25T15:44:58.431Z,16.83
2022-10-25T15:47:33.002Z,16.71
2022-10-25T15:50:03.292Z,16.69
2022-10-25T15:52:31.269Z,16.64
2022-10-25T15:54:59.315Z,16.62
2022-10-25T15:57:28.319Z,16.56
2022-10-25T15:59:56.218Z,16.54
2022-10-25T16:02:28.617Z,16.54
2022-10-25T16:04:56.704Z,16.55
2022-10-25T16:07:24.626Z,16.54
2022-10-25T16:09:52.537Z,16.39
2022-10-25T16:12:24.203Z,16.11
2022-10-25T16:14:53.268Z,15.92
2022-10-25T16:17:21.258Z,15.94
2022-10-25T16:19:50.505Z,15.96
2022-10-25T16:22:18.465Z,15.95
2022-10-25T16:24:46.497Z,15.95
2022-10-25T16:27:15.153Z,15.98
2022-10-25T16:29:44.080Z,15.96
2022-10-25T16:32:12.151Z,15.96
2022-10-25T16:34:42.595Z,16.01
2022-10-25T16:37:12.181Z,16.06
2022-10-25T16:39:40.306Z,16.06
2022-10-25T16:42:29.924Z,16.03
2022-10-25T16:44:58.687Z,15.99
2022-10-25T16:47:27.298Z,15.94
2022-10-25T16:49:55.618Z,15.89
2022-10-25T16:52:24.945Z,15.87
2022-10-25T16:54:53.015Z,15.85
2022-10-25T16:57:20.920Z,15.85
2022-10-25T16:59:48.980Z,15.81
2022-10-25T17:02:19.249Z,15.80
2022-10-25T17:04:48.470Z,15.78
2022-10-25T17:07:16.832Z,15.79
2022-10-25T17:09:46.444Z,15.71
2022-10-25T17:12:14.382Z,15.69
2022-10-25T17:14:42.469Z,15.70
2022-10-25T17:17:10.590Z,15.68
2022-10-25T17:19:38.609Z,15.71
2022-10-25T17:22:06.922Z,15.61
2022-10-25T17:24:37.520Z,15.53
2022-10-25T17:27:07.975Z,15.53
2022-10-25T17:29:35.921Z,15.50
2022-10-25T17:32:03.903Z,15.51
2022-10-25T17:34:32.478Z,15.54
2022-10-25T17:37:02.223Z,15.57
2022-10-25T17:39:30.519Z,15.59
2022-10-25T17:41:58.433Z,15.57
2022-10-25T17:44:27.756Z,15.58
2022-10-25T17:46:57.372Z,15.56
2022-10-25T17:49:27.656Z,15.56
2022-10-25T17:51:55.606Z,15.55
2022-10-25T17:54:23.567Z,15.53
2022-10-25T17:56:55.736Z,15.53
2022-10-25T17:59:23.665Z,15.52
2022-10-25T18:01:53.024Z,15.54
2022-10-25T18:04:21.077Z,15.48
2022-10-25T18:06:49.079Z,15.22
2022-10-25T18:09:17.198Z,15.11
2022-10-25T18:11:45.586Z,14.99
2022-10-25T18:14:13.560Z,14.97
2022-10-25T18:16:41.518Z,15.02
2022-10-25T18:19:14.520Z,15.01
2022-10-25T18:21:42.685Z,15.09
2022-10-25T18:24:14.210Z,15.17
2022-10-25T18:26:42.200Z,15.24
2022-10-25T18:29:10.978Z,15.25
2022-10-25T18:31:38.917Z,15.24
2022-10-25T18:34:06.889Z,15.24
2022-10-25T18:36:36.163Z,15.23
2022-10-25T18:39:04.928Z,15.22
2022-10-25T18:41:34.935Z,15.21
2022-10-25T18:44:03.519Z,15.20
2022-10-25T18:46:32.661Z,15.17
2022-10-25T18:49:00.935Z,15.12
2022-10-25T18:51:29.834Z,15.11
2022-10-25T18:54:00.385Z,15.12
2022-10-25T18:56:29.530Z,15.11
2022-10-25T18:58:58.985Z,15.11
2022-10-25T19:01:32.710Z,15.13
2022-10-25T19:04:01.879Z,15.15
2022-10-25T19:06:30.318Z,15.16
2022-10-25T19:08:59.749Z,15.17
2022-10-25T19:11:27.671Z,15.16
2022-10-25T19:13:56.507Z,15.16
2022-10-25T19:16:24.690Z,15.12
2022-10-25T19:18:52.685Z,15.05
2022-10-25T19:21:20.916Z,14.97
2022-10-25T19:23:49.079Z,14.89
2022-10-25T19:26:20.945Z,14.79
2022-10-25T19:28:49.013Z,14.83
2022-10-25T19:31:18.537Z,14.86
2022-10-25T19:33:47.200Z,14.88
2022-10-25T19:36:16.065Z,14.85
2022-10-25T19:38:45.332Z,14.79
2022-10-25T19:41:16.875Z,14.77
2022-10-25T19:43:48.055Z,14.79
2022-10-25T19:46:16.944Z,14.86
2022-10-25T19:48:45.476Z,14.89
2022-10-25T19:51:15.306Z,14.92
2022-10-25T19:53:43.708Z,14.96
2022-10-25T19:56:13.829Z,14.94
2022-10-25T19:58:42.136Z,14.97
2022-10-25T20:01:13.349Z,14.98
2022-10-25T20:03:43.033Z,14.86
2022-10-25T20:06:17.495Z,14.83
2022-10-25T20:08:48.383Z,14.82
2022-10-25T20:11:17.386Z,14.80
2022-10-25T20:13:46.169Z,14.80
2022-10-25T20:16:15.805Z,14.75
2022-10-25T20:18:44.223Z,14.75
2022-10-25T20:21:14.128Z,14.77
2022-10-25T20:23:44.474Z,14.80
2022-10-25T20:26:15.158Z,14.80
2022-10-25T20:28:44.004Z,14.80
2022-10-25T20:31:12.964Z,14.79
2022-10-25T20:33:43.247Z,14.81
2022-10-25T20:36:13.673Z,14.83
2022-10-25T20:38:41.922Z,14.85
2022-10-25T20:41:11.658Z,14.83
2022-10-25T20:43:40.453Z,14.73
2022-10-25T20:46:09.177Z,14.68
2022-10-25T20:48:37.476Z,14.38
2022-10-25T20:51:08.076Z,14.18
2022-10-25T20:53:37.061Z,14.25
2022-10-25T20:56:05.679Z,14.32
2022-10-25T20:58:34.742Z,14.46
2022-10-25T21:01:03.103Z,14.61
2022-10-25T21:03:32.290Z,14.69
2022-10-25T21:06:01.392Z,14.74
2022-10-25T21:08:31.769Z,14.79
2022-10-25T21:11:01.281Z,14.80
2022-10-25T21:13:32.403Z,14.79
2022-10-25T21:16:05.254Z,14.76
2022-10-25T21:18:33.183Z,14.70
2022-10-25T22:33:30.437Z,13.31
2022-10-25T22:36:05.838Z,13.37
